sensor_id;sensor_type;location;lat;lon;timestamp;P1;durP1;ratioP1;P2;durP2;ratioP2
2866;SDS011;1441;48.886;8.728;2023-02-01T00:01:45;1.10;;;1.10;;
2866;SDS011;1441;48.886;8.728;2023-02-01T00:04:11;1.30;;;1.20;;
2866;SDS011;1441;48.886;8.728;2023-02-01T00:06:37;2.00;;;1.57;;
2866;SDS011;1441;48.886;8.728;2023-02-01T00:09:03;1.67;;;1.57;;
2866;SDS011;1441;48.886;8.728;2023-02-01T00:11:29;1.10;;;1.10;;
2866;SDS011;1441;48.886;8.728;2023-02-01T00:13:54;1.73;;;1.30;;
2866;SDS011;1441;48.886;8.728;2023-02-01T00:18:48;1.83;;;1.37;;
2866;SDS011;1441;48.886;8.728;2023-02-01T00:21:17;2.10;;;1.30;;
2866;SDS011;1441;48.886;8.728;2023-02-01T00:23:44;2.20;;;1.00;;
2866;SDS011;1441;48.886;8.728;2023-02-01T00:26:12;0.80;;;0.80;;
2866;SDS011;1441;48.886;8.728;2023-02-01T00:28:40;1.00;;;0.90;;
2866;SDS011;1441;48.886;8.728;2023-02-01T00:31:06;1.43;;;1.33;;
2866;SDS011;1441;48.886;8.728;2023-02-01T00:33:31;0.80;;;0.80;;
2866;SDS011;1441;48.886;8.728;2023-02-01T00:35:58;1.80;;;1.40;;
2866;SDS011;1441;48.886;8.728;2023-02-01T00:38:31;1.30;;;1.07;;
2866;SDS011;1441;48.886;8.728;2023-02-01T00:41:09;1.00;;;1.00;;
2866;SDS011;1441;48.886;8.728;2023-02-01T00:43:43;1.20;;;1.10;;
2866;SDS011;1441;48.886;8.728;2023-02-01T00:46:09;1.00;;;1.00;;
2866;SDS011;1441;48.886;8.728;2023-02-01T00:48:35;1.10;;;1.00;;
2866;SDS011;1441;48.886;8.728;2023-02-01T00:51:02;2.83;;;1.00;;
2866;SDS011;1441;48.886;8.728;2023-02-01T00:53:29;1.50;;;1.07;;
2866;SDS011;1441;48.886;8.728;2023-02-01T00:55:55;1.13;;;1.13;;
2866;SDS011;1441;48.886;8.728;2023-02-01T00:58:21;2.47;;;1.20;;
2866;SDS011;1441;48.886;8.728;2023-02-01T01:00:50;0.80;;;0.80;;
2866;SDS011;1441;48.886;8.728;2023-02-01T01:03:26;0.90;;;0.80;;
2866;SDS011;1441;48.886;8.728;2023-02-01T01:05:56;1.27;;;1.27;;
2866;SDS011;1441;48.886;8.728;2023-02-01T01:08:22;0.60;;;0.60;;
2866;SDS011;1441;48.886;8.728;2023-02-01T01:10:48;1.00;;;0.90;;
2866;SDS011;1441;48.886;8.728;2023-02-01T01:13:14;1.20;;;1.10;;
2866;SDS011;1441;48.886;8.728;2023-02-01T01:15:40;0.90;;;0.90;;
2866;SDS011;1441;48.886;8.728;2023-02-01T01:18:07;0.80;;;0.60;;
2866;SDS011;1441;48.886;8.728;2023-02-01T01:20:37;0.80;;;0.80;;
2866;SDS011;1441;48.886;8.728;2023-02-01T01:23:05;1.00;;;0.70;;
2866;SDS011;1441;48.886;8.728;2023-02-01T01:25:31;1.50;;;0.60;;
2866;SDS011;1441;48.886;8.728;2023-02-01T01:27:56;1.03;;;0.87;;
2866;SDS011;1441;48.886;8.728;2023-02-01T01:30:22;2.30;;;1.00;;
2866;SDS011;1441;48.886;8.728;2023-02-01T01:32:47;1.27;;;1.10;;
2866;SDS011;1441;48.886;8.728;2023-02-01T01:35:13;1.77;;;1.00;;
2866;SDS011;1441;48.886;8.728;2023-02-01T01:37:39;1.07;;;1.07;;
2866;SDS011;1441;48.886;8.728;2023-02-01T01:40:05;1.00;;;1.00;;
2866;SDS011;1441;48.886;8.728;2023-02-01T01:42:39;1.43;;;1.07;;
2866;SDS011;1441;48.886;8.728;2023-02-01T01:47:43;2.97;;;1.40;;
2866;SDS011;1441;48.886;8.728;2023-02-01T01:50:14;1.13;;;1.00;;
2866;SDS011;1441;48.886;8.728;2023-02-01T01:52:44;0.70;;;0.70;;
2866;SDS011;1441;48.886;8.728;2023-02-01T01:55:13;1.07;;;0.97;;
2866;SDS011;1441;48.886;8.728;2023-02-01T01:57:42;1.50;;;1.00;;
2866;SDS011;1441;48.886;8.728;2023-02-01T02:00:12;0.77;;;0.77;;
2866;SDS011;1441;48.886;8.728;2023-02-01T02:02:40;0.80;;;0.80;;
2866;SDS011;1441;48.886;8.728;2023-02-01T02:05:08;1.37;;;0.90;;
2866;SDS011;1441;48.886;8.728;2023-02-01T02:07:35;1.67;;;1.20;;
2866;SDS011;1441;48.886;8.728;2023-02-01T02:10:06;0.80;;;0.80;;
2866;SDS011;1441;48.886;8.728;2023-02-01T02:12:35;1.17;;;0.90;;
2866;SDS011;1441;48.886;8.728;2023-02-01T02:15:06;1.10;;;1.00;;
2866;SDS011;1441;48.886;8.728;2023-02-01T02:34:17;0.90;;;0.90;;
2866;SDS011;1441;48.886;8.728;2023-02-01T02:37:19;1.73;;;0.70;;
2866;SDS011;1441;48.886;8.728;2023-02-01T02:40:07;1.23;;;0.87;;
2866;SDS011;1441;48.886;8.728;2023-02-01T02:49:10;0.67;;;0.67;;
2866;SDS011;1441;48.886;8.728;2023-02-01T02:51:45;1.67;;;0.93;;
2866;SDS011;1441;48.886;8.728;2023-02-01T02:54:40;0.93;;;0.93;;
2866;SDS011;1441;48.886;8.728;2023-02-01T02:57:30;0.80;;;0.80;;
2866;SDS011;1441;48.886;8.728;2023-02-01T03:00:18;0.90;;;0.90;;
2866;SDS011;1441;48.886;8.728;2023-02-01T03:03:04;1.53;;;0.70;;
2866;SDS011;1441;48.886;8.728;2023-02-01T03:05:50;1.67;;;0.90;;
2866;SDS011;1441;48.886;8.728;2023-02-01T03:08:20;0.70;;;0.70;;
2866;SDS011;1441;48.886;8.728;2023-02-01T03:10:53;0.90;;;0.90;;
2866;SDS011;1441;48.886;8.728;2023-02-01T03:21:10;0.53;;;0.50;;
2866;SDS011;1441;48.886;8.728;2023-02-01T03:23:41;0.60;;;0.60;;
2866;SDS011;1441;48.886;8.728;2023-02-01T03:26:10;0.50;;;0.50;;
2866;SDS011;1441;48.886;8.728;2023-02-01T03:28:41;0.63;;;0.63;;
2866;SDS011;1441;48.886;8.728;2023-02-01T03:31:10;0.83;;;0.63;;
2866;SDS011;1441;48.886;8.728;2023-02-01T03:33:35;0.50;;;0.50;;
2866;SDS011;1441;48.886;8.728;2023-02-01T03:38:42;1.13;;;0.80;;
2866;SDS011;1441;48.886;8.728;2023-02-01T03:41:23;0.60;;;0.60;;
2866;SDS011;1441;48.886;8.728;2023-02-01T03:44:16;0.90;;;0.90;;
2866;SDS011;1441;48.886;8.728;2023-02-01T03:46:52;0.60;;;0.60;;
2866;SDS011;1441;48.886;8.728;2023-02-01T03:52:02;0.70;;;0.70;;
2866;SDS011;1441;48.886;8.728;2023-02-01T03:54:30;2.83;;;1.20;;
2866;SDS011;1441;48.886;8.728;2023-02-01T03:56:57;1.13;;;0.67;;
2866;SDS011;1441;48.886;8.728;2023-02-01T03:59:26;1.50;;;0.73;;
2866;SDS011;1441;48.886;8.728;2023-02-01T04:01:52;1.57;;;1.47;;
2866;SDS011;1441;48.886;8.728;2023-02-01T04:04:18;3.60;;;1.83;;
2866;SDS011;1441;48.886;8.728;2023-02-01T04:06:49;0.80;;;0.80;;
2866;SDS011;1441;48.886;8.728;2023-02-01T04:09:15;1.27;;;0.97;;
2866;SDS011;1441;48.886;8.728;2023-02-01T04:11:41;0.90;;;0.90;;
2866;SDS011;1441;48.886;8.728;2023-02-01T04:14:07;1.43;;;0.90;;
2866;SDS011;1441;48.886;8.728;2023-02-01T04:16:33;0.80;;;0.80;;
2866;SDS011;1441;48.886;8.728;2023-02-01T04:18:59;0.60;;;0.60;;
2866;SDS011;1441;48.886;8.728;2023-02-01T04:21:25;0.80;;;0.60;;
2866;SDS011;1441;48.886;8.728;2023-02-01T04:23:51;0.57;;;0.57;;
2866;SDS011;1441;48.886;8.728;2023-02-01T04:26:17;0.70;;;0.70;;
2866;SDS011;1441;48.886;8.728;2023-02-01T04:28:44;2.50;;;1.00;;
2866;SDS011;1441;48.886;8.728;2023-02-01T04:31:12;0.90;;;0.87;;
2866;SDS011;1441;48.886;8.728;2023-02-01T04:33:38;1.23;;;1.10;;
2866;SDS011;1441;48.886;8.728;2023-02-01T04:36:04;2.63;;;0.70;;
2866;SDS011;1441;48.886;8.728;2023-02-01T04:38:29;1.03;;;1.03;;
2866;SDS011;1441;48.886;8.728;2023-02-01T04:40:57;0.73;;;0.73;;
2866;SDS011;1441;48.886;8.728;2023-02-01T04:43:22;0.83;;;0.80;;
2866;SDS011;1441;48.886;8.728;2023-02-01T04:45:48;1.13;;;0.80;;
2866;SDS011;1441;48.886;8.728;2023-02-01T04:48:15;0.80;;;0.70;;
2866;SDS011;1441;48.886;8.728;2023-02-01T04:50:42;0.90;;;0.90;;
2866;SDS011;1441;48.886;8.728;2023-02-01T04:53:11;0.60;;;0.60;;
2866;SDS011;1441;48.886;8.728;2023-02-01T04:55:36;0.80;;;0.80;;
2866;SDS011;1441;48.886;8.728;2023-02-01T04:58:02;0.70;;;0.70;;
2866;SDS011;1441;48.886;8.728;2023-02-01T05:00:27;1.53;;;0.80;;
2866;SDS011;1441;48.886;8.728;2023-02-01T05:02:53;0.90;;;0.90;;
2866;SDS011;1441;48.886;8.728;2023-02-01T05:05:19;0.83;;;0.83;;
2866;SDS011;1441;48.886;8.728;2023-02-01T05:07:45;1.50;;;1.00;;
2866;SDS011;1441;48.886;8.728;2023-02-01T05:10:11;1.53;;;1.10;;
2866;SDS011;1441;48.886;8.728;2023-02-01T05:12:37;1.83;;;1.07;;
2866;SDS011;1441;48.886;8.728;2023-02-01T05:15:26;1.03;;;0.90;;
2866;SDS011;1441;48.886;8.728;2023-02-01T05:17:51;1.00;;;0.90;;
2866;SDS011;1441;48.886;8.728;2023-02-01T05:20:17;1.73;;;0.80;;
2866;SDS011;1441;48.886;8.728;2023-02-01T05:22:42;1.97;;;1.10;;
2866;SDS011;1441;48.886;8.728;2023-02-01T05:25:08;1.53;;;1.00;;
2866;SDS011;1441;48.886;8.728;2023-02-01T05:27:34;1.20;;;1.00;;
2866;SDS011;1441;48.886;8.728;2023-02-01T05:29:59;0.83;;;0.73;;
2866;SDS011;1441;48.886;8.728;2023-02-01T05:32:25;1.13;;;1.00;;
2866;SDS011;1441;48.886;8.728;2023-02-01T05:34:50;0.90;;;0.90;;
2866;SDS011;1441;48.886;8.728;2023-02-01T05:37:16;1.17;;;0.90;;
2866;SDS011;1441;48.886;8.728;2023-02-01T05:39:41;0.80;;;0.80;;
2866;SDS011;1441;48.886;8.728;2023-02-01T05:42:07;1.33;;;1.13;;
2866;SDS011;1441;48.886;8.728;2023-02-01T05:44:33;1.10;;;1.00;;
2866;SDS011;1441;48.886;8.728;2023-02-01T05:46:58;1.30;;;1.30;;
2866;SDS011;1441;48.886;8.728;2023-02-01T05:49:24;3.13;;;0.93;;
2866;SDS011;1441;48.886;8.728;2023-02-01T05:51:49;1.00;;;1.00;;
2866;SDS011;1441;48.886;8.728;2023-02-01T05:54:15;1.03;;;1.03;;
2866;SDS011;1441;48.886;8.728;2023-02-01T05:56:41;1.37;;;1.27;;
2866;SDS011;1441;48.886;8.728;2023-02-01T05:59:06;1.40;;;1.30;;
2866;SDS011;1441;48.886;8.728;2023-02-01T06:01:32;2.03;;;1.93;;
2866;SDS011;1441;48.886;8.728;2023-02-01T06:03:58;3.63;;;2.90;;
2866;SDS011;1441;48.886;8.728;2023-02-01T06:06:23;2.00;;;1.90;;
2866;SDS011;1441;48.886;8.728;2023-02-01T06:08:49;2.50;;;2.00;;
2866;SDS011;1441;48.886;8.728;2023-02-01T06:11:14;3.20;;;2.23;;
2866;SDS011;1441;48.886;8.728;2023-02-01T06:13:40;3.00;;;2.30;;
2866;SDS011;1441;48.886;8.728;2023-02-01T06:16:06;3.40;;;2.63;;
2866;SDS011;1441;48.886;8.728;2023-02-01T06:18:33;6.83;;;2.30;;
2866;SDS011;1441;48.886;8.728;2023-02-01T06:20:59;5.20;;;2.50;;
2866;SDS011;1441;48.886;8.728;2023-02-01T06:23:25;4.17;;;2.53;;
2866;SDS011;1441;48.886;8.728;2023-02-01T06:25:52;4.50;;;3.20;;
2866;SDS011;1441;48.886;8.728;2023-02-01T06:28:24;3.67;;;2.70;;
2866;SDS011;1441;48.886;8.728;2023-02-01T06:30:50;4.97;;;2.90;;
2866;SDS011;1441;48.886;8.728;2023-02-01T06:33:15;6.33;;;3.50;;
2866;SDS011;1441;48.886;8.728;2023-02-01T06:35:42;5.30;;;2.97;;
2866;SDS011;1441;48.886;8.728;2023-02-01T06:38:12;7.23;;;3.40;;
2866;SDS011;1441;48.886;8.728;2023-02-01T06:40:38;4.23;;;2.90;;
2866;SDS011;1441;48.886;8.728;2023-02-01T06:43:06;3.63;;;2.47;;
2866;SDS011;1441;48.886;8.728;2023-02-01T06:45:31;8.90;;;3.00;;
2866;SDS011;1441;48.886;8.728;2023-02-01T06:47:58;5.40;;;3.23;;
2866;SDS011;1441;48.886;8.728;2023-02-01T06:50:25;4.80;;;2.90;;
2866;SDS011;1441;48.886;8.728;2023-02-01T06:52:51;3.10;;;2.80;;
2866;SDS011;1441;48.886;8.728;2023-02-01T06:55:16;4.10;;;2.83;;
2866;SDS011;1441;48.886;8.728;2023-02-01T06:57:42;11.20;;;2.80;;
2866;SDS011;1441;48.886;8.728;2023-02-01T07:00:08;8.00;;;2.93;;
2866;SDS011;1441;48.886;8.728;2023-02-01T07:02:34;7.00;;;2.90;;
2866;SDS011;1441;48.886;8.728;2023-02-01T07:04:59;5.53;;;3.17;;
2866;SDS011;1441;48.886;8.728;2023-02-01T07:07:25;4.27;;;2.83;;
2866;SDS011;1441;48.886;8.728;2023-02-01T07:09:50;6.47;;;3.50;;
2866;SDS011;1441;48.886;8.728;2023-02-01T07:12:16;6.67;;;2.53;;
2866;SDS011;1441;48.886;8.728;2023-02-01T07:14:43;3.43;;;3.17;;
2866;SDS011;1441;48.886;8.728;2023-02-01T07:17:09;9.10;;;2.83;;
2866;SDS011;1441;48.886;8.728;2023-02-01T07:19:34;6.83;;;2.97;;
2866;SDS011;1441;48.886;8.728;2023-02-01T07:22:00;7.30;;;2.57;;
2866;SDS011;1441;48.886;8.728;2023-02-01T07:24:25;5.80;;;3.10;;
2866;SDS011;1441;48.886;8.728;2023-02-01T07:26:51;4.57;;;2.73;;
2866;SDS011;1441;48.886;8.728;2023-02-01T07:29:17;8.30;;;2.70;;
2866;SDS011;1441;48.886;8.728;2023-02-01T07:31:44;5.83;;;2.93;;
2866;SDS011;1441;48.886;8.728;2023-02-01T07:34:09;5.23;;;2.90;;
2866;SDS011;1441;48.886;8.728;2023-02-01T07:36:35;5.30;;;2.80;;
2866;SDS011;1441;48.886;8.728;2023-02-01T07:39:01;11.40;;;3.33;;
2866;SDS011;1441;48.886;8.728;2023-02-01T07:41:28;5.70;;;2.60;;
2866;SDS011;1441;48.886;8.728;2023-02-01T07:43:53;2.70;;;2.50;;
2866;SDS011;1441;48.886;8.728;2023-02-01T07:46:20;4.53;;;3.00;;
2866;SDS011;1441;48.886;8.728;2023-02-01T07:48:46;7.83;;;2.87;;
2866;SDS011;1441;48.886;8.728;2023-02-01T07:51:13;8.23;;;2.80;;
2866;SDS011;1441;48.886;8.728;2023-02-01T07:53:40;6.37;;;2.60;;
2866;SDS011;1441;48.886;8.728;2023-02-01T07:56:16;4.93;;;2.53;;
2866;SDS011;1441;48.886;8.728;2023-02-01T07:58:46;6.40;;;2.90;;
2866;SDS011;1441;48.886;8.728;2023-02-01T08:01:13;12.23;;;2.77;;
2866;SDS011;1441;48.886;8.728;2023-02-01T08:03:50;6.97;;;2.93;;
2866;SDS011;1441;48.886;8.728;2023-02-01T08:06:18;11.50;;;3.27;;
2866;SDS011;1441;48.886;8.728;2023-02-01T08:08:47;6.70;;;2.60;;
2866;SDS011;1441;48.886;8.728;2023-02-01T08:11:14;6.30;;;2.40;;
2866;SDS011;1441;48.886;8.728;2023-02-01T08:13:41;6.97;;;2.40;;
2866;SDS011;1441;48.886;8.728;2023-02-01T08:16:07;6.00;;;2.10;;
2866;SDS011;1441;48.886;8.728;2023-02-01T08:18:35;6.57;;;2.70;;
2866;SDS011;1441;48.886;8.728;2023-02-01T08:23:32;2.80;;;2.03;;
2866;SDS011;1441;48.886;8.728;2023-02-01T08:26:09;7.23;;;2.53;;
2866;SDS011;1441;48.886;8.728;2023-02-01T08:28:47;6.53;;;2.07;;
2866;SDS011;1441;48.886;8.728;2023-02-01T08:31:15;11.23;;;3.20;;
2866;SDS011;1441;48.886;8.728;2023-02-01T08:33:42;9.90;;;2.70;;
2866;SDS011;1441;48.886;8.728;2023-02-01T08:36:12;10.07;;;2.67;;
2866;SDS011;1441;48.886;8.728;2023-02-01T08:38:38;7.60;;;3.23;;
2866;SDS011;1441;48.886;8.728;2023-02-01T08:41:05;8.33;;;2.20;;
2866;SDS011;1441;48.886;8.728;2023-02-01T08:43:33;8.93;;;2.70;;
2866;SDS011;1441;48.886;8.728;2023-02-01T08:45:58;5.70;;;2.50;;
2866;SDS011;1441;48.886;8.728;2023-02-01T08:48:24;6.47;;;2.57;;
2866;SDS011;1441;48.886;8.728;2023-02-01T08:50:50;4.60;;;2.70;;
2866;SDS011;1441;48.886;8.728;2023-02-01T08:53:15;3.80;;;2.57;;
2866;SDS011;1441;48.886;8.728;2023-02-01T08:55:41;4.50;;;2.20;;
2866;SDS011;1441;48.886;8.728;2023-02-01T08:58:06;9.50;;;2.20;;
2866;SDS011;1441;48.886;8.728;2023-02-01T09:00:32;6.20;;;2.00;;
2866;SDS011;1441;48.886;8.728;2023-02-01T09:02:57;11.30;;;2.10;;
2866;SDS011;1441;48.886;8.728;2023-02-01T09:05:23;7.43;;;2.40;;
2866;SDS011;1441;48.886;8.728;2023-02-01T09:07:51;7.50;;;3.17;;
2866;SDS011;1441;48.886;8.728;2023-02-01T09:10:17;10.63;;;2.57;;
2866;SDS011;1441;48.886;8.728;2023-02-01T09:12:43;6.80;;;2.27;;
2866;SDS011;1441;48.886;8.728;2023-02-01T09:15:09;6.43;;;2.03;;
2866;SDS011;1441;48.886;8.728;2023-02-01T09:17:34;9.80;;;2.40;;
2866;SDS011;1441;48.886;8.728;2023-02-01T09:20:01;10.10;;;2.37;;
2866;SDS011;1441;48.886;8.728;2023-02-01T09:22:27;12.00;;;2.03;;
2866;SDS011;1441;48.886;8.728;2023-02-01T09:24:53;6.17;;;1.97;;
2866;SDS011;1441;48.886;8.728;2023-02-01T09:27:18;7.43;;;1.90;;
2866;SDS011;1441;48.886;8.728;2023-02-01T09:29:44;4.73;;;2.23;;
2866;SDS011;1441;48.886;8.728;2023-02-01T09:32:09;4.00;;;1.77;;
2866;SDS011;1441;48.886;8.728;2023-02-01T09:34:35;6.80;;;2.50;;
2866;SDS011;1441;48.886;8.728;2023-02-01T09:37:01;7.67;;;2.07;;
2866;SDS011;1441;48.886;8.728;2023-02-01T09:39:27;6.13;;;1.87;;
2866;SDS011;1441;48.886;8.728;2023-02-01T09:41:59;6.23;;;1.73;;
2866;SDS011;1441;48.886;8.728;2023-02-01T09:44:47;6.73;;;2.00;;
2866;SDS011;1441;48.886;8.728;2023-02-01T09:47:16;9.43;;;2.23;;
2866;SDS011;1441;48.886;8.728;2023-02-01T09:52:38;11.80;;;2.50;;
2866;SDS011;1441;48.886;8.728;2023-02-01T09:55:16;7.47;;;2.27;;
2866;SDS011;1441;48.886;8.728;2023-02-01T10:00:25;6.57;;;2.20;;
2866;SDS011;1441;48.886;8.728;2023-02-01T10:02:54;10.37;;;2.33;;
2866;SDS011;1441;48.886;8.728;2023-02-01T10:05:25;12.37;;;2.43;;
2866;SDS011;1441;48.886;8.728;2023-02-01T10:08:14;9.93;;;2.50;;
2866;SDS011;1441;48.886;8.728;2023-02-01T10:10:51;9.60;;;1.90;;
2866;SDS011;1441;48.886;8.728;2023-02-01T10:16:23;9.00;;;2.20;;
2866;SDS011;1441;48.886;8.728;2023-02-01T10:19:00;6.27;;;2.00;;
2866;SDS011;1441;48.886;8.728;2023-02-01T10:21:41;7.60;;;2.40;;
2866;SDS011;1441;48.886;8.728;2023-02-01T10:29:54;13.13;;;1.70;;
2866;SDS011;1441;48.886;8.728;2023-02-01T10:32:33;7.57;;;2.10;;
2866;SDS011;1441;48.886;8.728;2023-02-01T10:35:00;10.20;;;2.77;;
2866;SDS011;1441;48.886;8.728;2023-02-01T10:37:34;7.80;;;2.30;;
2866;SDS011;1441;48.886;8.728;2023-02-01T10:40:00;12.80;;;2.63;;
2866;SDS011;1441;48.886;8.728;2023-02-01T10:42:47;8.30;;;2.90;;
2866;SDS011;1441;48.886;8.728;2023-02-01T10:45:18;9.90;;;2.30;;
2866;SDS011;1441;48.886;8.728;2023-02-01T10:47:47;12.63;;;2.67;;
2866;SDS011;1441;48.886;8.728;2023-02-01T10:50:37;11.50;;;2.47;;
2866;SDS011;1441;48.886;8.728;2023-02-01T10:53:24;4.70;;;2.03;;
2866;SDS011;1441;48.886;8.728;2023-02-01T10:55:57;6.67;;;2.07;;
2866;SDS011;1441;48.886;8.728;2023-02-01T10:58:31;6.50;;;1.80;;
2866;SDS011;1441;48.886;8.728;2023-02-01T11:03:36;12.90;;;2.10;;
2866;SDS011;1441;48.886;8.728;2023-02-01T11:06:37;7.30;;;2.50;;
2866;SDS011;1441;48.886;8.728;2023-02-01T11:08:59;6.07;;;1.90;;
2866;SDS011;1441;48.886;8.728;2023-02-01T11:14:55;6.50;;;2.13;;
2866;SDS011;1441;48.886;8.728;2023-02-01T11:17:25;5.83;;;3.10;;
2866;SDS011;1441;48.886;8.728;2023-02-01T11:19:57;14.93;;;2.60;;
2866;SDS011;1441;48.886;8.728;2023-02-01T11:22:37;11.73;;;2.70;;
2866;SDS011;1441;48.886;8.728;2023-02-01T11:25:08;5.60;;;2.07;;
2866;SDS011;1441;48.886;8.728;2023-02-01T11:27:35;7.70;;;2.30;;
2866;SDS011;1441;48.886;8.728;2023-02-01T11:30:00;4.87;;;1.73;;
2866;SDS011;1441;48.886;8.728;2023-02-01T11:32:28;5.70;;;1.53;;
2866;SDS011;1441;48.886;8.728;2023-02-01T11:34:57;15.13;;;2.60;;
2866;SDS011;1441;48.886;8.728;2023-02-01T11:37:30;4.63;;;2.00;;
2866;SDS011;1441;48.886;8.728;2023-02-01T11:43:00;4.40;;;2.70;;
2866;SDS011;1441;48.886;8.728;2023-02-01T11:48:27;6.13;;;2.17;;
2866;SDS011;1441;48.886;8.728;2023-02-01T11:51:14;7.93;;;1.90;;
2866;SDS011;1441;48.886;8.728;2023-02-01T12:01:56;10.13;;;2.30;;
2866;SDS011;1441;48.886;8.728;2023-02-01T12:07:16;7.90;;;1.90;;
2866;SDS011;1441;48.886;8.728;2023-02-01T12:12:24;7.63;;;1.90;;
2866;SDS011;1441;48.886;8.728;2023-02-01T12:15:05;5.70;;;1.70;;
2866;SDS011;1441;48.886;8.728;2023-02-01T12:23:26;7.07;;;1.80;;
2866;SDS011;1441;48.886;8.728;2023-02-01T12:26:26;7.77;;;1.87;;
2866;SDS011;1441;48.886;8.728;2023-02-01T12:34:38;6.37;;;1.60;;
2866;SDS011;1441;48.886;8.728;2023-02-01T12:40:31;9.57;;;2.20;;
2866;SDS011;1441;48.886;8.728;2023-02-01T12:43:12;6.70;;;2.77;;
2866;SDS011;1441;48.886;8.728;2023-02-01T12:45:55;8.40;;;2.17;;
2866;SDS011;1441;48.886;8.728;2023-02-01T12:48:28;5.87;;;2.40;;
2866;SDS011;1441;48.886;8.728;2023-02-01T12:56:13;10.90;;;2.50;;
2866;SDS011;1441;48.886;8.728;2023-02-01T12:58:46;7.00;;;2.03;;
2866;SDS011;1441;48.886;8.728;2023-02-01T13:01:20;8.83;;;2.40;;
2866;SDS011;1441;48.886;8.728;2023-02-01T13:03:55;9.83;;;1.67;;
2866;SDS011;1441;48.886;8.728;2023-02-01T13:09:09;10.10;;;1.90;;
2866;SDS011;1441;48.886;8.728;2023-02-01T13:11:59;6.03;;;2.10;;
2866;SDS011;1441;48.886;8.728;2023-02-01T13:14:37;9.77;;;3.00;;
2866;SDS011;1441;48.886;8.728;2023-02-01T13:17:14;7.40;;;2.10;;
2866;SDS011;1441;48.886;8.728;2023-02-01T13:22:40;8.10;;;1.83;;
2866;SDS011;1441;48.886;8.728;2023-02-01T13:27:35;5.50;;;1.67;;
2866;SDS011;1441;48.886;8.728;2023-02-01T13:30:03;15.00;;;3.03;;
2866;SDS011;1441;48.886;8.728;2023-02-01T13:38:42;6.50;;;2.67;;
2866;SDS011;1441;48.886;8.728;2023-02-01T13:43:49;7.07;;;1.70;;
2866;SDS011;1441;48.886;8.728;2023-02-01T13:46:17;9.63;;;2.50;;
2866;SDS011;1441;48.886;8.728;2023-02-01T13:48:48;10.40;;;2.33;;
2866;SDS011;1441;48.886;8.728;2023-02-01T13:51:31;9.37;;;2.73;;
2866;SDS011;1441;48.886;8.728;2023-02-01T13:54:05;8.83;;;2.63;;
2866;SDS011;1441;48.886;8.728;2023-02-01T13:56:39;9.80;;;2.10;;
2866;SDS011;1441;48.886;8.728;2023-02-01T14:13:28;6.50;;;2.07;;
2866;SDS011;1441;48.886;8.728;2023-02-01T14:23:41;14.87;;;2.77;;
2866;SDS011;1441;48.886;8.728;2023-02-01T14:26:10;7.40;;;2.10;;
2866;SDS011;1441;48.886;8.728;2023-02-01T14:28:46;8.53;;;2.20;;
2866;SDS011;1441;48.886;8.728;2023-02-01T14:31:40;14.30;;;2.60;;
2866;SDS011;1441;48.886;8.728;2023-02-01T14:34:10;7.03;;;2.33;;
2866;SDS011;1441;48.886;8.728;2023-02-01T14:36:40;7.50;;;1.93;;
2866;SDS011;1441;48.886;8.728;2023-02-01T14:44:49;6.23;;;2.10;;
2866;SDS011;1441;48.886;8.728;2023-02-01T14:52:40;9.93;;;1.87;;
2866;SDS011;1441;48.886;8.728;2023-02-01T14:57:44;10.97;;;3.00;;
2866;SDS011;1441;48.886;8.728;2023-02-01T15:00:16;11.53;;;1.97;;
2866;SDS011;1441;48.886;8.728;2023-02-01T15:02:48;5.47;;;1.80;;
2866;SDS011;1441;48.886;8.728;2023-02-01T15:07:46;8.33;;;1.60;;
2866;SDS011;1441;48.886;8.728;2023-02-01T15:10:12;3.20;;;1.80;;
2866;SDS011;1441;48.886;8.728;2023-02-01T15:12:40;6.80;;;1.90;;
2866;SDS011;1441;48.886;8.728;2023-02-01T15:17:37;11.17;;;1.87;;
2866;SDS011;1441;48.886;8.728;2023-02-01T15:22:37;9.57;;;2.53;;
2866;SDS011;1441;48.886;8.728;2023-02-01T15:25:03;9.07;;;2.03;;
2866;SDS011;1441;48.886;8.728;2023-02-01T15:27:29;13.23;;;2.63;;
2866;SDS011;1441;48.886;8.728;2023-02-01T15:30:15;13.23;;;2.70;;
2866;SDS011;1441;48.886;8.728;2023-02-01T15:32:43;5.23;;;1.90;;
2866;SDS011;1441;48.886;8.728;2023-02-01T15:43:49;6.60;;;1.80;;
2866;SDS011;1441;48.886;8.728;2023-02-01T15:46:41;11.30;;;1.93;;
2866;SDS011;1441;48.886;8.728;2023-02-01T15:49:16;19.40;;;2.60;;
2866;SDS011;1441;48.886;8.728;2023-02-01T15:51:45;9.60;;;1.90;;
2866;SDS011;1441;48.886;8.728;2023-02-01T15:54:13;6.93;;;2.00;;
2866;SDS011;1441;48.886;8.728;2023-02-01T15:56:46;8.90;;;1.90;;
2866;SDS011;1441;48.886;8.728;2023-02-01T15:59:18;5.83;;;1.90;;
2866;SDS011;1441;48.886;8.728;2023-02-01T16:01:46;5.57;;;1.60;;
2866;SDS011;1441;48.886;8.728;2023-02-01T16:04:17;11.03;;;1.67;;
2866;SDS011;1441;48.886;8.728;2023-02-01T16:06:47;10.03;;;2.07;;
2866;SDS011;1441;48.886;8.728;2023-02-01T16:09:14;8.20;;;1.90;;
2866;SDS011;1441;48.886;8.728;2023-02-01T16:12:02;10.90;;;1.93;;
2866;SDS011;1441;48.886;8.728;2023-02-01T16:14:28;4.73;;;1.80;;
2866;SDS011;1441;48.886;8.728;2023-02-01T16:16:56;9.70;;;1.70;;
2866;SDS011;1441;48.886;8.728;2023-02-01T16:19:23;3.23;;;1.33;;
2866;SDS011;1441;48.886;8.728;2023-02-01T16:21:53;15.63;;;3.20;;
2866;SDS011;1441;48.886;8.728;2023-02-01T16:24:20;7.93;;;2.17;;
2866;SDS011;1441;48.886;8.728;2023-02-01T16:26:48;7.83;;;3.17;;
2866;SDS011;1441;48.886;8.728;2023-02-01T16:29:13;10.43;;;2.03;;
2866;SDS011;1441;48.886;8.728;2023-02-01T16:31:40;6.83;;;1.80;;
2866;SDS011;1441;48.886;8.728;2023-02-01T16:34:06;12.00;;;3.13;;
2866;SDS011;1441;48.886;8.728;2023-02-01T16:36:41;14.87;;;2.57;;
2866;SDS011;1441;48.886;8.728;2023-02-01T16:39:08;12.73;;;2.47;;
2866;SDS011;1441;48.886;8.728;2023-02-01T16:41:36;8.33;;;2.40;;
2866;SDS011;1441;48.886;8.728;2023-02-01T16:44:02;6.80;;;1.97;;
2866;SDS011;1441;48.886;8.728;2023-02-01T16:46:28;6.17;;;2.10;;
2866;SDS011;1441;48.886;8.728;2023-02-01T16:48:58;11.60;;;2.10;;
2866;SDS011;1441;48.886;8.728;2023-02-01T16:51:26;8.50;;;2.27;;
2866;SDS011;1441;48.886;8.728;2023-02-01T16:53:55;10.10;;;1.80;;
2866;SDS011;1441;48.886;8.728;2023-02-01T16:56:22;9.53;;;2.40;;
2866;SDS011;1441;48.886;8.728;2023-02-01T16:58:50;3.37;;;2.30;;
2866;SDS011;1441;48.886;8.728;2023-02-01T17:01:17;11.40;;;1.70;;
2866;SDS011;1441;48.886;8.728;2023-02-01T17:03:44;11.93;;;3.00;;
2866;SDS011;1441;48.886;8.728;2023-02-01T17:06:10;7.83;;;2.00;;
2866;SDS011;1441;48.886;8.728;2023-02-01T17:08:40;11.93;;;2.27;;
2866;SDS011;1441;48.886;8.728;2023-02-01T17:11:08;11.60;;;1.97;;
2866;SDS011;1441;48.886;8.728;2023-02-01T17:13:35;3.50;;;1.83;;
2866;SDS011;1441;48.886;8.728;2023-02-01T17:16:02;6.30;;;2.00;;
2866;SDS011;1441;48.886;8.728;2023-02-01T17:18:34;10.13;;;2.23;;
2866;SDS011;1441;48.886;8.728;2023-02-01T17:21:00;4.47;;;1.53;;
2866;SDS011;1441;48.886;8.728;2023-02-01T17:23:28;4.90;;;2.07;;
2866;SDS011;1441;48.886;8.728;2023-02-01T17:25:55;12.60;;;1.77;;
2866;SDS011;1441;48.886;8.728;2023-02-01T17:28:21;5.43;;;1.70;;
2866;SDS011;1441;48.886;8.728;2023-02-01T17:30:47;7.67;;;1.97;;
2866;SDS011;1441;48.886;8.728;2023-02-01T17:33:20;6.33;;;1.90;;
2866;SDS011;1441;48.886;8.728;2023-02-01T17:35:53;4.80;;;1.80;;
2866;SDS011;1441;48.886;8.728;2023-02-01T17:38:19;5.77;;;1.93;;
2866;SDS011;1441;48.886;8.728;2023-02-01T17:40:45;7.50;;;2.00;;
2866;SDS011;1441;48.886;8.728;2023-02-01T17:43:12;7.03;;;2.10;;
2866;SDS011;1441;48.886;8.728;2023-02-01T17:46:01;9.03;;;2.33;;
2866;SDS011;1441;48.886;8.728;2023-02-01T17:48:36;11.43;;;2.50;;
2866;SDS011;1441;48.886;8.728;2023-02-01T17:51:02;7.43;;;1.60;;
2866;SDS011;1441;48.886;8.728;2023-02-01T17:53:28;6.63;;;1.77;;
2866;SDS011;1441;48.886;8.728;2023-02-01T17:55:54;7.27;;;2.40;;
2866;SDS011;1441;48.886;8.728;2023-02-01T17:58:22;8.13;;;2.30;;
2866;SDS011;1441;48.886;8.728;2023-02-01T18:00:48;10.70;;;1.97;;
2866;SDS011;1441;48.886;8.728;2023-02-01T18:05:43;6.13;;;2.30;;
2866;SDS011;1441;48.886;8.728;2023-02-01T18:08:14;8.90;;;2.43;;
2866;SDS011;1441;48.886;8.728;2023-02-01T18:10:52;5.47;;;1.47;;
2866;SDS011;1441;48.886;8.728;2023-02-01T18:13:26;5.80;;;2.20;;
2866;SDS011;1441;48.886;8.728;2023-02-01T18:15:52;9.17;;;2.73;;
2866;SDS011;1441;48.886;8.728;2023-02-01T18:18:19;11.07;;;2.40;;
2866;SDS011;1441;48.886;8.728;2023-02-01T18:20:45;8.33;;;1.67;;
2866;SDS011;1441;48.886;8.728;2023-02-01T18:23:19;7.13;;;1.57;;